Imperial, PA (15126)

12:23 AM EDT on May 26, 2017 (GMT -0400)
Walden Woods | | Change Station

Elev 1093 ft 40.45 °N, 80.22 °W | Updated 3 seconds ago

Overcast
Overcast
57.9 °F
Feels Like 57.9 °F
N
2.9
Wind Variable Wind from WSW
Gusts 4.9 mph

Today
High -- | Low -- °F
--% Chance of Precip.
Yesterday
High -- | Low -- °F
Precip. -- in
Pressure 29.61 in
Visibility 7.0 miles
Clouds Few 900 ft
Scattered Clouds 2800 ft
Overcast 8500 ft
Dew Point 51 °F
Humidity 78%
Rainfall 0.00 in
Snow Depth Not available.
5:55 AM 8:40 PM
New Moon, 0% visible
METAR KPIT 260351Z 25004KT 7SM -RA FEW009 SCT028 OVC085 14/14 A2959 RMK AO2 DZE11RAB11 SLP025 P0003 T01440139
Pressure 29.61 in
Visibility 7.0 miles
Clouds Few 900 ft
Scattered Clouds 2800 ft
Overcast 8500 ft
Dew Point 51 °F
Humidity 78%
Rainfall 0.00 in
Snow Depth Not available.
5:55 AM 8:40 PM
New Moon, 0% visible
METAR KPIT 260351Z 25004KT 7SM -RA FEW009 SCT028 OVC085 14/14 A2959 RMK AO2 DZE11RAB11 SLP025 P0003 T01440139

Get Severe Weather Alerts

Thanks for signing up!

Be on the lookout for a verification email in your inbox.

You'll start receiving the daily forecast at 6 AM.

×

10-Day Weather Forecast

Almanac

Astronomy

May. 26, 2017 Rise Set
Actual Time
Civil Twilight
Nautical Twilight
Astronomical Twilight
Moon
Length of Visible Light
Length of Day
Tomorrow will be .
, % of the Moon is Illuminated

Today's Extremes

State Highs State Lows

Community

WunderPhotos

Category 6

Welcome to Category 6. This is the collective home for Weather Underground's featured writeups by Dr. Jeff Masters (right), Bob Henson (left), Chris Burt, and other regular contributors.

Nearby

Air Quality

  Air Quality AQ Index Pollutant
Not available.

Snow Depth

Station Depth Elevation

Earthquake Activity

City Distance Mag. Time & Date
Minimum magnitude displayed is 2.5.

Coastal Water Temperatures

Place Temperature

Stations

Nearby Weather Stations

Station Location Temp. Windchill Dew Point Humidity Wind Precip. Elev Updated Type
                   

Watches & Warnings

There are currently no watches in effect.